Aviation Digital Data Service (ADDS)

Output produced by METARs form (0747 UTC 02 April 2015)
found at http://www.aviationweather.gov/adds/metars/
 
KLNS 020653Z AUTO 09003KT 7SM CLR 01/M02 A3022 RMK AO2 SLP236 T00061022
KLNS 020532Z 0206/0306 15006KT P6SM SCT250 WS020/19035KT 
     FM021800 20010G20KT P6SM SCT035 BKN100 
     FM030400 19010G20KT P6SM VCSH OVC035